sensor_id;sensor_type;location;lat;lon;timestamp;temperature;humidity
17948;DHT22;9099;47.958;11.366;2022-12-08T00:01:14;3.30;99.90
17948;DHT22;9099;47.958;11.366;2022-12-08T00:03:41;3.30;99.90
17948;DHT22;9099;47.958;11.366;2022-12-08T00:06:18;3.30;99.90
17948;DHT22;9099;47.958;11.366;2022-12-08T00:09:04;3.30;99.90
17948;DHT22;9099;47.958;11.366;2022-12-08T00:11:54;3.30;99.90
17948;DHT22;9099;47.958;11.366;2022-12-08T00:14:23;3.30;99.90
17948;DHT22;9099;47.958;11.366;2022-12-08T00:16:52;3.20;99.90
17948;DHT22;9099;47.958;11.366;2022-12-08T00:19:19;3.10;99.90
17948;DHT22;9099;47.958;11.366;2022-12-08T00:21:46;3.10;99.90
17948;DHT22;9099;47.958;11.366;2022-12-08T00:24:13;3.20;99.90
17948;DHT22;9099;47.958;11.366;2022-12-08T00:26:40;3.10;99.90
17948;DHT22;9099;47.958;11.366;2022-12-08T00:29:07;3.10;99.90
17948;DHT22;9099;47.958;11.366;2022-12-08T00:31:34;3.20;99.90
17948;DHT22;9099;47.958;11.366;2022-12-08T00:34:03;3.20;99.90
17948;DHT22;9099;47.958;11.366;2022-12-08T00:36:30;3.10;99.90
17948;DHT22;9099;47.958;11.366;2022-12-08T00:38:57;3.10;99.90
17948;DHT22;9099;47.958;11.366;2022-12-08T00:41:25;3.10;99.90
17948;DHT22;9099;47.958;11.366;2022-12-08T00:44:11;3.00;99.90
17948;DHT22;9099;47.958;11.366;2022-12-08T00:46:39;2.90;99.90
17948;DHT22;9099;47.958;11.366;2022-12-08T00:49:07;2.90;99.90
17948;DHT22;9099;47.958;11.366;2022-12-08T00:51:34;3.00;99.90
17948;DHT22;9099;47.958;11.366;2022-12-08T00:54:01;3.00;99.90
17948;DHT22;9099;47.958;11.366;2022-12-08T00:56:28;3.00;99.90
17948;DHT22;9099;47.958;11.366;2022-12-08T00:58:55;3.10;99.90
17948;DHT22;9099;47.958;11.366;2022-12-08T01:01:23;3.10;99.90
17948;DHT22;9099;47.958;11.366;2022-12-08T01:03:50;3.20;99.90
17948;DHT22;9099;47.958;11.366;2022-12-08T01:06:18;3.20;99.90
17948;DHT22;9099;47.958;11.366;2022-12-08T01:08:45;3.30;99.90
17948;DHT22;9099;47.958;11.366;2022-12-08T01:11:14;3.20;99.90
17948;DHT22;9099;47.958;11.366;2022-12-08T01:13:41;3.20;99.90
17948;DHT22;9099;47.958;11.366;2022-12-08T01:16:09;3.20;99.90
17948;DHT22;9099;47.958;11.366;2022-12-08T01:18:36;3.20;99.90
17948;DHT22;9099;47.958;11.366;2022-12-08T01:21:03;3.20;99.90
17948;DHT22;9099;47.958;11.366;2022-12-08T01:23:31;3.10;99.90
17948;DHT22;9099;47.958;11.366;2022-12-08T01:26:01;3.00;99.90
17948;DHT22;9099;47.958;11.366;2022-12-08T01:28:28;2.90;99.90
17948;DHT22;9099;47.958;11.366;2022-12-08T01:30:55;2.70;99.90
17948;DHT22;9099;47.958;11.366;2022-12-08T01:33:22;2.60;99.90
17948;DHT22;9099;47.958;11.366;2022-12-08T01:35:49;2.60;99.90
17948;DHT22;9099;47.958;11.366;2022-12-08T01:38:16;2.60;99.90
17948;DHT22;9099;47.958;11.366;2022-12-08T01:40:44;2.70;99.90
17948;DHT22;9099;47.958;11.366;2022-12-08T01:43:13;2.70;99.90
17948;DHT22;9099;47.958;11.366;2022-12-08T01:45:41;2.60;99.90
17948;DHT22;9099;47.958;11.366;2022-12-08T01:48:13;2.60;99.90
17948;DHT22;9099;47.958;11.366;2022-12-08T01:50:43;2.60;99.90
17948;DHT22;9099;47.958;11.366;2022-12-08T01:53:13;2.60;99.90
17948;DHT22;9099;47.958;11.366;2022-12-08T01:55:45;2.60;99.90
17948;DHT22;9099;47.958;11.366;2022-12-08T01:58:17;2.70;99.90
17948;DHT22;9099;47.958;11.366;2022-12-08T02:00:47;2.70;99.90
17948;DHT22;9099;47.958;11.366;2022-12-08T02:03:19;2.70;99.90
17948;DHT22;9099;47.958;11.366;2022-12-08T02:05:47;2.80;99.90
17948;DHT22;9099;47.958;11.366;2022-12-08T02:08:14;2.70;99.90
17948;DHT22;9099;47.958;11.366;2022-12-08T02:10:42;2.70;99.90
17948;DHT22;9099;47.958;11.366;2022-12-08T02:13:13;2.70;99.90
17948;DHT22;9099;47.958;11.366;2022-12-08T02:15:49;2.80;99.90
17948;DHT22;9099;47.958;11.366;2022-12-08T02:18:33;2.80;99.90
17948;DHT22;9099;47.958;11.366;2022-12-08T02:21:06;2.80;99.90
17948;DHT22;9099;47.958;11.366;2022-12-08T02:23:42;2.80;99.90
17948;DHT22;9099;47.958;11.366;2022-12-08T02:26:38;2.80;99.90
17948;DHT22;9099;47.958;11.366;2022-12-08T02:29:38;2.80;99.90
17948;DHT22;9099;47.958;11.366;2022-12-08T02:32:29;2.70;99.90
17948;DHT22;9099;47.958;11.366;2022-12-08T02:35:06;2.70;99.90
17948;DHT22;9099;47.958;11.366;2022-12-08T02:37:38;2.80;99.90
17948;DHT22;9099;47.958;11.366;2022-12-08T02:40:13;2.90;99.90
17948;DHT22;9099;47.958;11.366;2022-12-08T02:42:46;2.80;99.90
17948;DHT22;9099;47.958;11.366;2022-12-08T02:45:18;2.90;99.90
17948;DHT22;9099;47.958;11.366;2022-12-08T02:47:48;2.90;99.90
17948;DHT22;9099;47.958;11.366;2022-12-08T02:50:18;2.90;99.90
17948;DHT22;9099;47.958;11.366;2022-12-08T02:52:46;3.00;99.90
17948;DHT22;9099;47.958;11.366;2022-12-08T02:55:25;2.90;99.90
17948;DHT22;9099;47.958;11.366;2022-12-08T03:01:11;2.90;99.90
17948;DHT22;9099;47.958;11.366;2022-12-08T03:03:45;2.70;99.90
17948;DHT22;9099;47.958;11.366;2022-12-08T03:06:24;2.60;99.90
17948;DHT22;9099;47.958;11.366;2022-12-08T03:08:56;2.60;99.90
17948;DHT22;9099;47.958;11.366;2022-12-08T03:11:28;2.60;99.90
17948;DHT22;9099;47.958;11.366;2022-12-08T03:13:58;2.60;99.90
17948;DHT22;9099;47.958;11.366;2022-12-08T03:16:27;2.70;99.90
17948;DHT22;9099;47.958;11.366;2022-12-08T03:19:00;2.70;99.90
17948;DHT22;9099;47.958;11.366;2022-12-08T03:21:32;2.60;99.90
17948;DHT22;9099;47.958;11.366;2022-12-08T03:24:02;2.60;99.90
17948;DHT22;9099;47.958;11.366;2022-12-08T03:26:37;2.60;99.90
17948;DHT22;9099;47.958;11.366;2022-12-08T03:29:06;2.60;99.90
17948;DHT22;9099;47.958;11.366;2022-12-08T03:31:37;2.60;99.90
17948;DHT22;9099;47.958;11.366;2022-12-08T03:34:06;2.60;99.90
17948;DHT22;9099;47.958;11.366;2022-12-08T03:36:36;2.70;99.90
17948;DHT22;9099;47.958;11.366;2022-12-08T03:39:03;2.70;99.90
17948;DHT22;9099;47.958;11.366;2022-12-08T03:41:30;2.60;99.90
17948;DHT22;9099;47.958;11.366;2022-12-08T03:43:57;2.60;99.90
17948;DHT22;9099;47.958;11.366;2022-12-08T03:46:27;2.60;99.90
17948;DHT22;9099;47.958;11.366;2022-12-08T03:48:54;2.50;99.90
17948;DHT22;9099;47.958;11.366;2022-12-08T03:51:22;2.60;99.90
17948;DHT22;9099;47.958;11.366;2022-12-08T03:53:50;2.60;99.90
17948;DHT22;9099;47.958;11.366;2022-12-08T03:56:22;2.60;99.90
17948;DHT22;9099;47.958;11.366;2022-12-08T03:58:49;2.60;99.90
17948;DHT22;9099;47.958;11.366;2022-12-08T04:01:16;2.60;99.90
17948;DHT22;9099;47.958;11.366;2022-12-08T04:03:43;2.60;99.90
17948;DHT22;9099;47.958;11.366;2022-12-08T04:06:10;2.50;99.90
17948;DHT22;9099;47.958;11.366;2022-12-08T04:08:37;2.60;99.90
17948;DHT22;9099;47.958;11.366;2022-12-08T04:11:05;2.60;99.90
17948;DHT22;9099;47.958;11.366;2022-12-08T04:13:32;2.40;99.90
17948;DHT22;9099;47.958;11.366;2022-12-08T04:15:59;2.40;99.90
17948;DHT22;9099;47.958;11.366;2022-12-08T04:18:26;2.40;99.90
17948;DHT22;9099;47.958;11.366;2022-12-08T04:20:53;2.50;99.90
17948;DHT22;9099;47.958;11.366;2022-12-08T04:23:20;2.50;99.90
17948;DHT22;9099;47.958;11.366;2022-12-08T04:25:47;2.60;99.90
17948;DHT22;9099;47.958;11.366;2022-12-08T04:28:15;2.60;99.90
17948;DHT22;9099;47.958;11.366;2022-12-08T04:30:42;2.60;99.90
17948;DHT22;9099;47.958;11.366;2022-12-08T04:33:09;2.70;99.90
17948;DHT22;9099;47.958;11.366;2022-12-08T04:35:35;2.70;99.90
17948;DHT22;9099;47.958;11.366;2022-12-08T04:38:02;2.80;99.90
17948;DHT22;9099;47.958;11.366;2022-12-08T04:40:29;2.70;99.90
17948;DHT22;9099;47.958;11.366;2022-12-08T04:42:56;2.60;99.90
17948;DHT22;9099;47.958;11.366;2022-12-08T04:45:25;2.60;99.90
17948;DHT22;9099;47.958;11.366;2022-12-08T04:47:51;2.70;99.90
17948;DHT22;9099;47.958;11.366;2022-12-08T04:50:18;2.70;99.90
17948;DHT22;9099;47.958;11.366;2022-12-08T04:52:45;2.80;99.90
17948;DHT22;9099;47.958;11.366;2022-12-08T04:55:12;2.80;99.90
17948;DHT22;9099;47.958;11.366;2022-12-08T04:57:39;2.70;99.90
17948;DHT22;9099;47.958;11.366;2022-12-08T05:00:07;2.70;99.90
17948;DHT22;9099;47.958;11.366;2022-12-08T05:02:35;2.70;99.90
17948;DHT22;9099;47.958;11.366;2022-12-08T05:05:02;2.70;99.90
17948;DHT22;9099;47.958;11.366;2022-12-08T05:07:29;2.70;99.90
17948;DHT22;9099;47.958;11.366;2022-12-08T05:09:56;2.70;99.90
17948;DHT22;9099;47.958;11.366;2022-12-08T05:12:23;2.70;99.90
17948;DHT22;9099;47.958;11.366;2022-12-08T05:14:50;2.70;99.90
17948;DHT22;9099;47.958;11.366;2022-12-08T05:17:17;2.80;99.90
17948;DHT22;9099;47.958;11.366;2022-12-08T05:19:45;2.70;99.90
17948;DHT22;9099;47.958;11.366;2022-12-08T05:22:12;2.70;99.90
17948;DHT22;9099;47.958;11.366;2022-12-08T05:24:39;2.80;99.90
17948;DHT22;9099;47.958;11.366;2022-12-08T05:27:06;2.80;99.90
17948;DHT22;9099;47.958;11.366;2022-12-08T05:29:33;2.80;99.90
17948;DHT22;9099;47.958;11.366;2022-12-08T05:31:59;2.80;99.90
17948;DHT22;9099;47.958;11.366;2022-12-08T05:34:26;2.80;99.90
17948;DHT22;9099;47.958;11.366;2022-12-08T05:36:54;2.80;99.90
17948;DHT22;9099;47.958;11.366;2022-12-08T05:39:21;2.80;99.90
17948;DHT22;9099;47.958;11.366;2022-12-08T05:41:48;2.80;99.90
17948;DHT22;9099;47.958;11.366;2022-12-08T05:44:15;2.70;99.90
17948;DHT22;9099;47.958;11.366;2022-12-08T05:46:42;2.60;99.90
17948;DHT22;9099;47.958;11.366;2022-12-08T05:49:08;2.50;99.90
17948;DHT22;9099;47.958;11.366;2022-12-08T05:51:35;2.40;99.90
17948;DHT22;9099;47.958;11.366;2022-12-08T05:54:04;2.40;99.90
17948;DHT22;9099;47.958;11.366;2022-12-08T05:56:31;2.50;99.90
17948;DHT22;9099;47.958;11.366;2022-12-08T05:58:58;2.40;99.90
17948;DHT22;9099;47.958;11.366;2022-12-08T06:01:27;2.50;99.90
17948;DHT22;9099;47.958;11.366;2022-12-08T06:03:56;2.40;99.90
17948;DHT22;9099;47.958;11.366;2022-12-08T06:06:23;2.40;99.90
17948;DHT22;9099;47.958;11.366;2022-12-08T06:08:50;2.40;99.90
17948;DHT22;9099;47.958;11.366;2022-12-08T06:11:19;2.40;99.90
17948;DHT22;9099;47.958;11.366;2022-12-08T06:13:47;2.40;99.90
17948;DHT22;9099;47.958;11.366;2022-12-08T06:16:14;2.40;99.90
17948;DHT22;9099;47.958;11.366;2022-12-08T06:18:41;2.30;99.90
17948;DHT22;9099;47.958;11.366;2022-12-08T06:21:11;2.30;99.90
17948;DHT22;9099;47.958;11.366;2022-12-08T06:23:38;2.30;99.90
17948;DHT22;9099;47.958;11.366;2022-12-08T06:26:06;2.30;99.90
17948;DHT22;9099;47.958;11.366;2022-12-08T06:28:35;2.30;99.90
17948;DHT22;9099;47.958;11.366;2022-12-08T06:31:06;2.30;99.90
17948;DHT22;9099;47.958;11.366;2022-12-08T06:33:33;2.30;99.90
17948;DHT22;9099;47.958;11.366;2022-12-08T06:36:00;2.30;99.90
17948;DHT22;9099;47.958;11.366;2022-12-08T06:38:27;2.30;99.90
17948;DHT22;9099;47.958;11.366;2022-12-08T06:40:54;2.30;99.90
17948;DHT22;9099;47.958;11.366;2022-12-08T06:43:21;2.20;99.90
17948;DHT22;9099;47.958;11.366;2022-12-08T06:45:49;2.30;99.90
17948;DHT22;9099;47.958;11.366;2022-12-08T06:48:17;2.30;99.90
17948;DHT22;9099;47.958;11.366;2022-12-08T06:50:44;2.40;99.90
17948;DHT22;9099;47.958;11.366;2022-12-08T06:53:12;2.30;99.90
17948;DHT22;9099;47.958;11.366;2022-12-08T06:55:42;2.30;99.90
17948;DHT22;9099;47.958;11.366;2022-12-08T06:58:09;2.20;99.90
17948;DHT22;9099;47.958;11.366;2022-12-08T07:00:37;2.20;99.90
17948;DHT22;9099;47.958;11.366;2022-12-08T07:03:05;2.10;99.90
17948;DHT22;9099;47.958;11.366;2022-12-08T07:05:32;2.20;99.90
17948;DHT22;9099;47.958;11.366;2022-12-08T07:07:59;2.10;99.90
17948;DHT22;9099;47.958;11.366;2022-12-08T07:10:27;2.20;99.90
17948;DHT22;9099;47.958;11.366;2022-12-08T07:12:54;2.20;99.90
17948;DHT22;9099;47.958;11.366;2022-12-08T07:15:20;2.20;99.90
17948;DHT22;9099;47.958;11.366;2022-12-08T07:17:47;2.20;99.90
17948;DHT22;9099;47.958;11.366;2022-12-08T07:20:16;2.20;99.90
17948;DHT22;9099;47.958;11.366;2022-12-08T07:22:47;2.20;99.90
17948;DHT22;9099;47.958;11.366;2022-12-08T07:25:15;2.20;99.90
17948;DHT22;9099;47.958;11.366;2022-12-08T07:27:42;2.30;99.90
17948;DHT22;9099;47.958;11.366;2022-12-08T07:30:09;2.40;99.90
17948;DHT22;9099;47.958;11.366;2022-12-08T07:32:36;2.50;99.90
17948;DHT22;9099;47.958;11.366;2022-12-08T07:35:04;2.60;99.90
17948;DHT22;9099;47.958;11.366;2022-12-08T07:37:34;2.70;99.90
17948;DHT22;9099;47.958;11.366;2022-12-08T07:40:01;2.70;99.90
17948;DHT22;9099;47.958;11.366;2022-12-08T07:42:27;2.80;99.90
17948;DHT22;9099;47.958;11.366;2022-12-08T07:44:54;2.90;99.90
17948;DHT22;9099;47.958;11.366;2022-12-08T07:47:21;3.20;99.90
17948;DHT22;9099;47.958;11.366;2022-12-08T07:49:48;3.40;99.90
17948;DHT22;9099;47.958;11.366;2022-12-08T07:52:15;3.70;99.90
17948;DHT22;9099;47.958;11.366;2022-12-08T07:54:43;4.20;99.90
17948;DHT22;9099;47.958;11.366;2022-12-08T07:57:10;5.00;99.90
17948;DHT22;9099;47.958;11.366;2022-12-08T07:59:37;5.90;99.90
17948;DHT22;9099;47.958;11.366;2022-12-08T08:02:03;6.80;99.90
17948;DHT22;9099;47.958;11.366;2022-12-08T08:04:30;7.70;99.90
17948;DHT22;9099;47.958;11.366;2022-12-08T08:06:57;8.70;99.90
17948;DHT22;9099;47.958;11.366;2022-12-08T08:09:24;8.90;99.90
17948;DHT22;9099;47.958;11.366;2022-12-08T08:11:52;8.50;99.90
17948;DHT22;9099;47.958;11.366;2022-12-08T08:14:19;8.30;99.90
17948;DHT22;9099;47.958;11.366;2022-12-08T08:16:46;8.10;99.90
17948;DHT22;9099;47.958;11.366;2022-12-08T08:19:13;7.80;99.90
17948;DHT22;9099;47.958;11.366;2022-12-08T08:21:39;7.60;99.90
17948;DHT22;9099;47.958;11.366;2022-12-08T08:24:06;7.20;99.90
17948;DHT22;9099;47.958;11.366;2022-12-08T08:26:35;6.90;99.90
17948;DHT22;9099;47.958;11.366;2022-12-08T08:29:03;6.80;99.90
17948;DHT22;9099;47.958;11.366;2022-12-08T08:31:30;6.60;99.90
17948;DHT22;9099;47.958;11.366;2022-12-08T08:33:57;6.60;99.90
17948;DHT22;9099;47.958;11.366;2022-12-08T08:36:29;6.60;99.90
17948;DHT22;9099;47.958;11.366;2022-12-08T08:38:56;6.50;99.90
17948;DHT22;9099;47.958;11.366;2022-12-08T08:41:23;6.50;99.90
17948;DHT22;9099;47.958;11.366;2022-12-08T08:43:49;6.40;99.90
17948;DHT22;9099;47.958;11.366;2022-12-08T08:46:18;6.40;99.90
17948;DHT22;9099;47.958;11.366;2022-12-08T08:48:44;6.40;99.90
17948;DHT22;9099;47.958;11.366;2022-12-08T08:51:13;6.40;99.90
17948;DHT22;9099;47.958;11.366;2022-12-08T08:53:40;7.40;99.90
17948;DHT22;9099;47.958;11.366;2022-12-08T08:56:08;8.80;99.90
17948;DHT22;9099;47.958;11.366;2022-12-08T08:58:35;9.40;99.90
17948;DHT22;9099;47.958;11.366;2022-12-08T09:01:02;9.90;99.90
17948;DHT22;9099;47.958;11.366;2022-12-08T09:03:30;10.30;99.90
17948;DHT22;9099;47.958;11.366;2022-12-08T09:05:57;11.00;99.90
17948;DHT22;9099;47.958;11.366;2022-12-08T09:08:24;10.90;99.90
17948;DHT22;9099;47.958;11.366;2022-12-08T09:10:51;10.40;99.90
17948;DHT22;9099;47.958;11.366;2022-12-08T09:13:18;9.80;99.90
17948;DHT22;9099;47.958;11.366;2022-12-08T09:15:44;9.50;99.90
17948;DHT22;9099;47.958;11.366;2022-12-08T09:18:11;9.00;99.90
17948;DHT22;9099;47.958;11.366;2022-12-08T09:20:39;8.70;99.90
17948;DHT22;9099;47.958;11.366;2022-12-08T09:23:06;8.70;99.90
17948;DHT22;9099;47.958;11.366;2022-12-08T09:25:33;8.70;99.90
17948;DHT22;9099;47.958;11.366;2022-12-08T09:28:00;8.80;99.90
17948;DHT22;9099;47.958;11.366;2022-12-08T09:30:27;9.00;99.90
17948;DHT22;9099;47.958;11.366;2022-12-08T09:32:54;9.90;99.90
17948;DHT22;9099;47.958;11.366;2022-12-08T09:35:20;11.20;99.90
17948;DHT22;9099;47.958;11.366;2022-12-08T09:37:49;11.70;99.90
17948;DHT22;9099;47.958;11.366;2022-12-08T09:40:18;11.30;99.90
17948;DHT22;9099;47.958;11.366;2022-12-08T09:42:49;11.40;99.90
17948;DHT22;9099;47.958;11.366;2022-12-08T09:45:17;12.30;99.90
17948;DHT22;9099;47.958;11.366;2022-12-08T09:47:56;13.30;99.90
17948;DHT22;9099;47.958;11.366;2022-12-08T09:50:29;14.20;99.90
17948;DHT22;9099;47.958;11.366;2022-12-08T09:53:03;15.20;99.90
17948;DHT22;9099;47.958;11.366;2022-12-08T09:55:39;15.60;99.90
17948;DHT22;9099;47.958;11.366;2022-12-08T09:58:13;14.90;99.90
17948;DHT22;9099;47.958;11.366;2022-12-08T10:00:43;14.60;99.90
17948;DHT22;9099;47.958;11.366;2022-12-08T10:03:11;14.30;99.90
17948;DHT22;9099;47.958;11.366;2022-12-08T10:05:41;12.50;99.90
17948;DHT22;9099;47.958;11.366;2022-12-08T10:08:18;12.20;99.90
17948;DHT22;9099;47.958;11.366;2022-12-08T10:10:47;13.10;99.90
17948;DHT22;9099;47.958;11.366;2022-12-08T10:13:23;13.20;99.90
17948;DHT22;9099;47.958;11.366;2022-12-08T10:15:57;12.50;99.90
17948;DHT22;9099;47.958;11.366;2022-12-08T10:18:32;11.80;99.90
17948;DHT22;9099;47.958;11.366;2022-12-08T10:21:12;11.80;99.90
17948;DHT22;9099;47.958;11.366;2022-12-08T10:23:44;11.80;99.90
17948;DHT22;9099;47.958;11.366;2022-12-08T10:26:14;11.50;99.90
17948;DHT22;9099;47.958;11.366;2022-12-08T10:28:42;11.50;99.90
17948;DHT22;9099;47.958;11.366;2022-12-08T10:31:14;11.20;99.90
17948;DHT22;9099;47.958;11.366;2022-12-08T10:33:42;11.30;99.90
17948;DHT22;9099;47.958;11.366;2022-12-08T10:36:10;11.60;99.90
17948;DHT22;9099;47.958;11.366;2022-12-08T10:38:39;11.40;99.90
17948;DHT22;9099;47.958;11.366;2022-12-08T10:41:12;11.30;99.90
17948;DHT22;9099;47.958;11.366;2022-12-08T10:43:43;11.00;99.90
17948;DHT22;9099;47.958;11.366;2022-12-08T10:46:14;11.10;99.90
17948;DHT22;9099;47.958;11.366;2022-12-08T10:48:52;11.90;99.90
17948;DHT22;9099;47.958;11.366;2022-12-08T10:51:26;12.00;99.90
17948;DHT22;9099;47.958;11.366;2022-12-08T10:53:53;11.70;99.90
17948;DHT22;9099;47.958;11.366;2022-12-08T10:56:24;11.40;99.90
17948;DHT22;9099;47.958;11.366;2022-12-08T10:59:13;11.10;99.90
17948;DHT22;9099;47.958;11.366;2022-12-08T11:01:44;10.80;99.90
17948;DHT22;9099;47.958;11.366;2022-12-08T11:04:16;10.70;99.90
17948;DHT22;9099;47.958;11.366;2022-12-08T11:06:43;10.50;99.90
17948;DHT22;9099;47.958;11.366;2022-12-08T11:09:38;10.30;99.90
17948;DHT22;9099;47.958;11.366;2022-12-08T11:12:14;10.00;99.90
17948;DHT22;9099;47.958;11.366;2022-12-08T11:14:47;9.60;99.90
17948;DHT22;9099;47.958;11.366;2022-12-08T11:17:16;9.20;99.90
17948;DHT22;9099;47.958;11.366;2022-12-08T11:19:56;9.00;99.90
17948;DHT22;9099;47.958;11.366;2022-12-08T11:22:25;8.80;99.90
17948;DHT22;9099;47.958;11.366;2022-12-08T11:25:00;8.60;99.90
17948;DHT22;9099;47.958;11.366;2022-12-08T11:27:29;8.40;99.90
17948;DHT22;9099;47.958;11.366;2022-12-08T11:29:59;8.30;99.90
17948;DHT22;9099;47.958;11.366;2022-12-08T11:32:26;8.10;99.90
17948;DHT22;9099;47.958;11.366;2022-12-08T11:34:55;7.90;99.90
17948;DHT22;9099;47.958;11.366;2022-12-08T11:37:25;7.80;99.90
17948;DHT22;9099;47.958;11.366;2022-12-08T11:39:57;7.70;99.90
17948;DHT22;9099;47.958;11.366;2022-12-08T11:42:33;7.60;99.90
17948;DHT22;9099;47.958;11.366;2022-12-08T11:45:05;7.50;99.90
17948;DHT22;9099;47.958;11.366;2022-12-08T11:47:35;7.50;99.90
17948;DHT22;9099;47.958;11.366;2022-12-08T11:50:16;7.50;99.90
17948;DHT22;9099;47.958;11.366;2022-12-08T11:52:46;7.50;99.90
17948;DHT22;9099;47.958;11.366;2022-12-08T11:55:26;7.50;99.90
17948;DHT22;9099;47.958;11.366;2022-12-08T11:57:59;7.50;99.90
17948;DHT22;9099;47.958;11.366;2022-12-08T12:00:28;7.70;99.90
17948;DHT22;9099;47.958;11.366;2022-12-08T12:03:00;7.50;99.90
17948;DHT22;9099;47.958;11.366;2022-12-08T12:05:33;7.40;99.90
17948;DHT22;9099;47.958;11.366;2022-12-08T12:08:19;7.70;99.90
17948;DHT22;9099;47.958;11.366;2022-12-08T12:11:00;8.00;99.90
17948;DHT22;9099;47.958;11.366;2022-12-08T12:13:46;8.40;99.90
17948;DHT22;9099;47.958;11.366;2022-12-08T12:16:39;8.50;99.90
17948;DHT22;9099;47.958;11.366;2022-12-08T12:19:11;8.70;99.90
17948;DHT22;9099;47.958;11.366;2022-12-08T12:21:42;9.10;99.90
17948;DHT22;9099;47.958;11.366;2022-12-08T12:24:15;9.50;99.90
17948;DHT22;9099;47.958;11.366;2022-12-08T12:26:53;9.40;99.90
17948;DHT22;9099;47.958;11.366;2022-12-08T12:29:24;9.10;99.90
17948;DHT22;9099;47.958;11.366;2022-12-08T12:31:54;8.80;99.90
17948;DHT22;9099;47.958;11.366;2022-12-08T12:34:25;8.80;99.90
17948;DHT22;9099;47.958;11.366;2022-12-08T12:36:54;8.90;99.90
17948;DHT22;9099;47.958;11.366;2022-12-08T12:39:25;8.50;99.90
17948;DHT22;9099;47.958;11.366;2022-12-08T12:41:54;8.40;99.90
17948;DHT22;9099;47.958;11.366;2022-12-08T12:44:39;8.90;99.90
17948;DHT22;9099;47.958;11.366;2022-12-08T12:47:13;9.50;99.90
17948;DHT22;9099;47.958;11.366;2022-12-08T12:49:51;9.70;99.90
17948;DHT22;9099;47.958;11.366;2022-12-08T12:52:36;9.80;99.90
17948;DHT22;9099;47.958;11.366;2022-12-08T13:01:47;9.90;99.90
17948;DHT22;9099;47.958;11.366;2022-12-08T13:04:16;9.50;99.90
17948;DHT22;9099;47.958;11.366;2022-12-08T13:06:47;9.20;99.90
17948;DHT22;9099;47.958;11.366;2022-12-08T13:09:21;9.00;99.90
17948;DHT22;9099;47.958;11.366;2022-12-08T13:11:50;8.70;99.90
17948;DHT22;9099;47.958;11.366;2022-12-08T13:14:33;8.40;99.90
17948;DHT22;9099;47.958;11.366;2022-12-08T13:17:06;8.40;99.90
17948;DHT22;9099;47.958;11.366;2022-12-08T13:19:37;8.30;99.90
17948;DHT22;9099;47.958;11.366;2022-12-08T13:28:26;7.60;99.90
17948;DHT22;9099;47.958;11.366;2022-12-08T13:30:55;7.50;99.90
17948;DHT22;9099;47.958;11.366;2022-12-08T13:33:29;7.70;99.90
17948;DHT22;9099;47.958;11.366;2022-12-08T13:36:09;7.80;99.90
17948;DHT22;9099;47.958;11.366;2022-12-08T13:38:37;7.90;99.90
17948;DHT22;9099;47.958;11.366;2022-12-08T13:41:14;7.90;99.90
17948;DHT22;9099;47.958;11.366;2022-12-08T13:43:46;7.90;99.90
17948;DHT22;9099;47.958;11.366;2022-12-08T13:46:16;7.90;99.90
17948;DHT22;9099;47.958;11.366;2022-12-08T13:48:53;7.60;99.90
17948;DHT22;9099;47.958;11.366;2022-12-08T13:51:23;7.50;99.90
17948;DHT22;9099;47.958;11.366;2022-12-08T13:53:58;7.40;99.90
17948;DHT22;9099;47.958;11.366;2022-12-08T13:56:27;7.40;99.90
17948;DHT22;9099;47.958;11.366;2022-12-08T13:59:06;7.30;99.90
17948;DHT22;9099;47.958;11.366;2022-12-08T14:01:40;7.20;99.90
17948;DHT22;9099;47.958;11.366;2022-12-08T14:04:13;7.20;99.90
17948;DHT22;9099;47.958;11.366;2022-12-08T14:06:43;7.00;99.90
17948;DHT22;9099;47.958;11.366;2022-12-08T14:09:13;7.00;99.90
17948;DHT22;9099;47.958;11.366;2022-12-08T14:11:43;6.80;99.90
17948;DHT22;9099;47.958;11.366;2022-12-08T14:14:16;6.70;99.90
17948;DHT22;9099;47.958;11.366;2022-12-08T14:16:49;6.70;99.90
17948;DHT22;9099;47.958;11.366;2022-12-08T14:19:21;6.60;99.90
17948;DHT22;9099;47.958;11.366;2022-12-08T14:21:54;6.50;99.90
17948;DHT22;9099;47.958;11.366;2022-12-08T14:24:23;6.40;99.90
17948;DHT22;9099;47.958;11.366;2022-12-08T14:26:52;6.30;99.90
17948;DHT22;9099;47.958;11.366;2022-12-08T14:29:36;6.30;99.90
17948;DHT22;9099;47.958;11.366;2022-12-08T14:32:05;6.10;99.90
17948;DHT22;9099;47.958;11.366;2022-12-08T14:34:37;6.00;99.90
17948;DHT22;9099;47.958;11.366;2022-12-08T14:37:10;6.00;99.90
17948;DHT22;9099;47.958;11.366;2022-12-08T14:39:38;5.90;99.90
17948;DHT22;9099;47.958;11.366;2022-12-08T14:42:05;5.80;99.90
17948;DHT22;9099;47.958;11.366;2022-12-08T14:44:37;5.70;99.90
17948;DHT22;9099;47.958;11.366;2022-12-08T14:47:07;5.60;99.90
17948;DHT22;9099;47.958;11.366;2022-12-08T14:49:37;5.50;99.90
17948;DHT22;9099;47.958;11.366;2022-12-08T14:52:09;5.40;99.90
17948;DHT22;9099;47.958;11.366;2022-12-08T14:54:37;5.30;99.90
17948;DHT22;9099;47.958;11.366;2022-12-08T14:57:10;5.20;99.90
17948;DHT22;9099;47.958;11.366;2022-12-08T14:59:39;5.10;99.90
17948;DHT22;9099;47.958;11.366;2022-12-08T15:02:20;5.10;99.90
17948;DHT22;9099;47.958;11.366;2022-12-08T15:04:56;5.10;99.90
17948;DHT22;9099;47.958;11.366;2022-12-08T15:07:25;4.90;99.90
17948;DHT22;9099;47.958;11.366;2022-12-08T15:10:08;4.90;99.90
17948;DHT22;9099;47.958;11.366;2022-12-08T15:12:36;4.80;99.90
17948;DHT22;9099;47.958;11.366;2022-12-08T15:15:15;4.80;99.90
17948;DHT22;9099;47.958;11.366;2022-12-08T15:17:44;4.70;99.90
17948;DHT22;9099;47.958;11.366;2022-12-08T15:20:29;4.70;99.90
17948;DHT22;9099;47.958;11.366;2022-12-08T15:22:58;4.70;99.90
17948;DHT22;9099;47.958;11.366;2022-12-08T15:25:25;4.60;99.90
17948;DHT22;9099;47.958;11.366;2022-12-08T15:27:51;4.60;99.90
17948;DHT22;9099;47.958;11.366;2022-12-08T15:30:19;4.50;99.90
17948;DHT22;9099;47.958;11.366;2022-12-08T15:32:46;4.40;99.90
17948;DHT22;9099;47.958;11.366;2022-12-08T15:35:16;4.40;99.90
17948;DHT22;9099;47.958;11.366;2022-12-08T15:37:45;4.30;99.90
17948;DHT22;9099;47.958;11.366;2022-12-08T15:40:16;4.30;99.90
17948;DHT22;9099;47.958;11.366;2022-12-08T15:42:43;4.20;99.90
17948;DHT22;9099;47.958;11.366;2022-12-08T15:45:12;4.10;99.90
17948;DHT22;9099;47.958;11.366;2022-12-08T15:47:40;4.00;99.90
17948;DHT22;9099;47.958;11.366;2022-12-08T15:50:13;3.80;99.90
17948;DHT22;9099;47.958;11.366;2022-12-08T15:52:40;3.70;99.90
17948;DHT22;9099;47.958;11.366;2022-12-08T15:55:12;3.60;99.90
17948;DHT22;9099;47.958;11.366;2022-12-08T15:57:41;3.60;99.90
17948;DHT22;9099;47.958;11.366;2022-12-08T16:00:28;3.50;99.90
17948;DHT22;9099;47.958;11.366;2022-12-08T16:02:56;3.50;99.90
17948;DHT22;9099;47.958;11.366;2022-12-08T16:05:24;3.40;99.90
17948;DHT22;9099;47.958;11.366;2022-12-08T16:07:51;3.40;99.90
17948;DHT22;9099;47.958;11.366;2022-12-08T16:10:21;3.40;99.90
17948;DHT22;9099;47.958;11.366;2022-12-08T16:12:48;3.30;99.90
17948;DHT22;9099;47.958;11.366;2022-12-08T16:15:33;3.30;99.90
17948;DHT22;9099;47.958;11.366;2022-12-08T16:18:01;3.30;99.90
17948;DHT22;9099;47.958;11.366;2022-12-08T16:20:28;3.20;99.90